MSC Clorinda — 3FDW7 — position and weather

sailwx.info

Track history (hours):
 
Tides and Currents Weather Stations Pressure Air Temp Water Temp Dewpoint Dewpoint Depression Visibility Wind Speed Wind Dir Waves Ship Positions

MSC Clorinda

Last reported at 2015-Feb-28 23:12 UTC. Time now 2015-Mar-06 21:38 UTC.
Position N 01°60' E 102°13'.

Length 366 m; draft 15.6 m.

Type: Ship (hazmat cat A). MMSI: 373233000.

Date/timePositionNaut miles runAvg speedWind from/ knotsBaromVisibWave heightAir tempDewpointWater temp
2015-Feb-28 23:12N 01°60' E 102°13'1719.2
2015-Feb-28 22:19N 01°51' E 102°27'1519.4
2015-Feb-28 21:33N 01°45' E 102°41'6819.8
2015-Feb-28 18:07N 01°11' E 103°40'915.0
2015-Feb-28 17:31N 01°11' E 103°49'6 6.4
2015-Feb-28 16:33N 01°16' E 103°45'0 0.2
2015-Feb-28 15:30N 01°17' E 103°45'0 0.0
2015-Feb-28 10:23N 01°17' E 103°45'0 0.0
2015-Feb-28 09:32N 01°17' E 103°45'0 0.0
2015-Feb-28 08:25N 01°17' E 103°45'0 0.0
2015-Feb-28 07:31N 01°17' E 103°45'0 0.0
2015-Feb-28 06:24N 01°17' E 103°45'0 0.0
2015-Feb-28 05:33N 01°17' E 103°45'0 0.0
2015-Feb-28 04:32N 01°17' E 103°45'0 0.0
2015-Feb-28 03:32N 01°17' E 103°45'0 0.0
2015-Feb-28 02:33N 01°17' E 103°45'0 0.0
2015-Feb-28 01:31N 01°17' E 103°45'0 0.0
2015-Feb-28 00:14N 01°17' E 103°45'0 0.0
2015-Feb-27 22:33N 01°17' E 103°45'0 0.0
2015-Feb-27 21:26N 01°17' E 103°45'0 0.0
2015-Feb-27 20:18N 01°17' E 103°45'0 0.0
2015-Feb-27 19:33N 01°17' E 103°45'0 0.0
2015-Feb-27 18:26N 01°17' E 103°45'0 0.0
2015-Feb-27 17:31N 01°17' E 103°45'0 0.0
2015-Feb-27 16:33N 01°17' E 103°45'0 0.0
2015-Feb-27 15:31N 01°17' E 103°45'0 0.0
2015-Feb-27 13:33N 01°17' E 103°45'0 0.0
2015-Feb-27 12:21N 01°17' E 103°45'5 0.3
2015-Feb-26 22:16N 01°13' E 103°48'4 5.5
2015-Feb-26 21:30N 01°13' E 103°52'8 9.0
2015-Feb-26 20:34N 01°16' E 104°00'1312.6
2015-Feb-26 19:33N 01°17' E 104°13'  
2015-Feb-23 10:34N 21°55' E 114°23'1717.0
2015-Feb-23 09:33N 22°12' E 114°27'12 1.2
2015-Feb-22 23:25N 22°24' E 114°27'910.7
2015-Feb-22 22:32N 22°15' E 114°26'8 8.4
2015-Feb-22 21:33N 22°07' E 114°22'11 9.4
2015-Feb-22 20:22N 22°12' E 114°11'911.2
2015-Feb-22 19:33N 22°19' E 114°05'10 9.7
2015-Feb-22 18:29N 22°22' E 113°55'6 6.1
2015-Feb-22 17:33N 22°28' E 113°52'0 0.2
2015-Feb-22 16:33N 22°28' E 113°53'0 0.0
2015-Feb-22 15:21N 22°28' E 113°53'0 0.0
2015-Feb-22 14:33N 22°28' E 113°53'0 0.0
2015-Feb-22 13:21N 22°28' E 113°53'0 0.0
2015-Feb-22 12:03N 22°28' E 113°53'0 0.0
2015-Feb-22 10:21N 22°28' E 113°53'0 0.0
2015-Feb-22 08:27N 22°28' E 113°53'0 0.0
2015-Feb-22 07:33N 22°28' E 113°53'5 5.1
2015-Feb-22 06:33N 22°23' E 113°54'1110.5
2015-Feb-22 05:33N 22°20' E 114°05'11 9.7
2015-Feb-22 04:28N 22°11' E 114°11'8 8.3
2015-Feb-22 03:33N 22°08' E 114°19'1313.5
2015-Feb-22 02:33N 22°09' E 114°33'20613.7
2015-Feb-21 11:30N 23°30' E 117°59'1414.5
2015-Feb-21 10:30N 23°41' E 118°10'1514.1
2015-Feb-21 09:26N 23°51' E 118°22'1314.7
2015-Feb-21 08:32N 23°59' E 118°33'2914.7
2015-Feb-21 06:33N 24°16' E 118°59'7514.9
2015-Feb-21 01:31N 25°02' E 120°04'34913.7
2015-Feb-20 00:04N 30°01' E 123°27'3714.4
2015-Feb-19 21:30N 30°23' E 122°53'1414.2
2015-Feb-19 20:31N 30°29' E 122°39'1515.3
2015-Feb-19 19:33N 30°32' E 122°22'1515.1
2015-Feb-19 18:33N 30°36' E 122°05'2 2.0
2015-Feb-19 17:31N 30°38' E 122°03'0 0.0
2015-Feb-19 16:28N 30°38' E 122°03'0 0.0
2015-Feb-19 15:19N 30°38' E 122°03'0 0.0
2015-Feb-19 14:22N 30°38' E 122°03'0 0.0
2015-Feb-19 13:31N 30°38' E 122°03'0 0.0
2015-Feb-19 12:31N 30°38' E 122°03'0 0.0
2015-Feb-19 11:31N 30°38' E 122°03'0 0.0
2015-Feb-19 10:31N 30°38' E 122°03'0 0.0
2015-Feb-19 09:31N 30°38' E 122°03'0 0.0
2015-Feb-19 08:31N 30°38' E 122°03'0 0.0
2015-Feb-19 07:31N 30°38' E 122°03'0 0.0
2015-Feb-19 06:31N 30°38' E 122°03'1 0.9
2015-Feb-19 05:33N 30°37' E 122°04'3 3.1
2015-Feb-19 04:33N 30°35' E 122°07'1010.1
2015-Feb-19 03:33N 30°33' E 122°18'6 6.0
2015-Feb-19 02:33N 30°32' E 122°25'10 9.7
2015-Feb-19 01:30N 30°30' E 122°37'1110.5
2015-Feb-19 00:27N 30°21' E 122°44'1011.0
2015-Feb-18 23:33N 30°11' E 122°48'  
Track history (hours):
 
Tides and Currents Weather Stations Pressure Air Temp Water Temp Dewpoint Dewpoint Depression Visibility Wind Speed Wind Dir Waves Ship Positions

MSC Clorinda

Last reported at 2015-Feb-28 23:12 UTC. Time now 2015-Mar-06 21:38 UTC.
Position N 01°60' E 102°13'.

Length 366 m; draft 15.6 m.

Type: Ship (hazmat cat A). MMSI: 373233000.

Date/timePositionNaut miles runAvg speedWind from/ knotsBaromVisibWave heightAir tempDewpointWater temp
2015-Feb-28 23:12N 01°60' E 102°13'1719.2
2015-Feb-28 22:19N 01°51' E 102°27'1519.4
2015-Feb-28 21:33N 01°45' E 102°41'6819.8
2015-Feb-28 18:07N 01°11' E 103°40'915.0
2015-Feb-28 17:31N 01°11' E 103°49'6 6.4
2015-Feb-28 16:33N 01°16' E 103°45'0 0.2
2015-Feb-28 15:30N 01°17' E 103°45'0 0.0
2015-Feb-28 10:23N 01°17' E 103°45'0 0.0
2015-Feb-28 09:32N 01°17' E 103°45'0 0.0
2015-Feb-28 08:25N 01°17' E 103°45'0 0.0
2015-Feb-28 07:31N 01°17' E 103°45'0 0.0
2015-Feb-28 06:24N 01°17' E 103°45'0 0.0
2015-Feb-28 05:33N 01°17' E 103°45'0 0.0
2015-Feb-28 04:32N 01°17' E 103°45'0 0.0
2015-Feb-28 03:32N 01°17' E 103°45'0 0.0
2015-Feb-28 02:33N 01°17' E 103°45'0 0.0
2015-Feb-28 01:31N 01°17' E 103°45'0 0.0
2015-Feb-28 00:14N 01°17' E 103°45'0 0.0
2015-Feb-27 22:33N 01°17' E 103°45'0 0.0
2015-Feb-27 21:26N 01°17' E 103°45'0 0.0
2015-Feb-27 20:18N 01°17' E 103°45'0 0.0
2015-Feb-27 19:33N 01°17' E 103°45'0 0.0
2015-Feb-27 18:26N 01°17' E 103°45'0 0.0
2015-Feb-27 17:31N 01°17' E 103°45'0 0.0
2015-Feb-27 16:33N 01°17' E 103°45'0 0.0
2015-Feb-27 15:31N 01°17' E 103°45'0 0.0
2015-Feb-27 13:33N 01°17' E 103°45'0 0.0
2015-Feb-27 12:21N 01°17' E 103°45'5 0.3
2015-Feb-26 22:16N 01°13' E 103°48'4 5.5
2015-Feb-26 21:30N 01°13' E 103°52'8 9.0
2015-Feb-26 20:34N 01°16' E 104°00'1312.6
2015-Feb-26 19:33N 01°17' E 104°13'  
2015-Feb-23 10:34N 21°55' E 114°23'1717.0
2015-Feb-23 09:33N 22°12' E 114°27'12 1.2
2015-Feb-22 23:25N 22°24' E 114°27'910.7
2015-Feb-22 22:32N 22°15' E 114°26'8 8.4
2015-Feb-22 21:33N 22°07' E 114°22'11 9.4
2015-Feb-22 20:22N 22°12' E 114°11'911.2
2015-Feb-22 19:33N 22°19' E 114°05'10 9.7
2015-Feb-22 18:29N 22°22' E 113°55'6 6.1
2015-Feb-22 17:33N 22°28' E 113°52'0 0.2
2015-Feb-22 16:33N 22°28' E 113°53'0 0.0
2015-Feb-22 15:21N 22°28' E 113°53'0 0.0
2015-Feb-22 14:33N 22°28' E 113°53'0 0.0
2015-Feb-22 13:21N 22°28' E 113°53'0 0.0
2015-Feb-22 12:03N 22°28' E 113°53'0 0.0
2015-Feb-22 10:21N 22°28' E 113°53'0 0.0
2015-Feb-22 08:27N 22°28' E 113°53'0 0.0
2015-Feb-22 07:33N 22°28' E 113°53'5 5.1
2015-Feb-22 06:33N 22°23' E 113°54'1110.5
2015-Feb-22 05:33N 22°20' E 114°05'11 9.7
2015-Feb-22 04:28N 22°11' E 114°11'8 8.3
2015-Feb-22 03:33N 22°08' E 114°19'1313.5
2015-Feb-22 02:33N 22°09' E 114°33'20613.7
2015-Feb-21 11:30N 23°30' E 117°59'1414.5
2015-Feb-21 10:30N 23°41' E 118°10'1514.1
2015-Feb-21 09:26N 23°51' E 118°22'1314.7
2015-Feb-21 08:32N 23°59' E 118°33'2914.7
2015-Feb-21 06:33N 24°16' E 118°59'7514.9
2015-Feb-21 01:31N 25°02' E 120°04'34913.7
2015-Feb-20 00:04N 30°01' E 123°27'3714.4
2015-Feb-19 21:30N 30°23' E 122°53'1414.2
2015-Feb-19 20:31N 30°29' E 122°39'1515.3
2015-Feb-19 19:33N 30°32' E 122°22'1515.1
2015-Feb-19 18:33N 30°36' E 122°05'2 2.0
2015-Feb-19 17:31N 30°38' E 122°03'0 0.0
2015-Feb-19 16:28N 30°38' E 122°03'0 0.0
2015-Feb-19 15:19N 30°38' E 122°03'0 0.0
2015-Feb-19 14:22N 30°38' E 122°03'0 0.0
2015-Feb-19 13:31N 30°38' E 122°03'0 0.0
2015-Feb-19 12:31N 30°38' E 122°03'0 0.0
2015-Feb-19 11:31N 30°38' E 122°03'0 0.0
2015-Feb-19 10:31N 30°38' E 122°03'0 0.0
2015-Feb-19 09:31N 30°38' E 122°03'0 0.0
2015-Feb-19 08:31N 30°38' E 122°03'0 0.0
2015-Feb-19 07:31N 30°38' E 122°03'0 0.0
2015-Feb-19 06:31N 30°38' E 122°03'1 0.9
2015-Feb-19 05:33N 30°37' E 122°04'3 3.1
2015-Feb-19 04:33N 30°35' E 122°07'1010.1
2015-Feb-19 03:33N 30°33' E 122°18'6 6.0
2015-Feb-19 02:33N 30°32' E 122°25'10 9.7
2015-Feb-19 01:30N 30°30' E 122°37'1110.5
2015-Feb-19 00:27N 30°21' E 122°44'1011.0
2015-Feb-18 23:33N 30°11' E 122°48'  

Dump ship's entire track history